createdAt,value
2024-01-11T00:00:21.821Z,10.27
2024-01-11T00:02:55.183Z,9.10
2024-01-11T00:05:28.998Z,8.20
2024-01-11T00:08:02.913Z,8.97
2024-01-11T00:10:29.682Z,9.10
2024-01-11T00:13:03.102Z,8.80
2024-01-11T00:15:29.853Z,9.00
2024-01-11T00:18:03.177Z,8.13
2024-01-11T00:20:30.157Z,8.63
2024-01-11T00:23:03.865Z,9.10
2024-01-11T00:25:30.588Z,8.00
2024-01-11T00:28:03.819Z,8.40
2024-01-11T00:30:30.561Z,8.93
2024-01-11T00:33:04.142Z,10.60
2024-01-11T00:35:30.997Z,10.20
2024-01-11T00:38:03.967Z,8.70
2024-01-11T00:40:30.672Z,9.57
2024-01-11T00:42:57.299Z,9.40
2024-01-11T00:45:30.839Z,8.40
2024-01-11T00:48:04.065Z,11.87
2024-01-11T00:50:30.826Z,11.00
2024-01-11T00:53:03.891Z,10.63
2024-01-11T00:55:37.961Z,9.40
2024-01-11T00:58:04.700Z,8.60
2024-01-11T01:00:37.824Z,9.70
2024-01-11T01:03:17.921Z,8.60
2024-01-11T01:05:51.107Z,9.83
2024-01-11T01:08:19.110Z,9.57
2024-01-11T01:10:55.478Z,8.53
2024-01-11T01:13:22.440Z,10.17
2024-01-11T01:15:55.868Z,10.43
2024-01-11T01:18:22.666Z,9.53
2024-01-11T01:20:55.910Z,7.67
2024-01-11T01:23:22.696Z,12.50
2024-01-11T01:25:56.870Z,10.23
2024-01-11T01:28:29.845Z,10.30
2024-01-11T01:31:02.890Z,9.83
2024-01-11T01:33:36.053Z,9.63
2024-01-11T01:36:02.868Z,9.63
2024-01-11T01:38:37.932Z,8.27
2024-01-11T01:41:04.675Z,9.47
2024-01-11T01:43:37.907Z,10.90
2024-01-11T01:46:06.831Z,8.00
2024-01-11T01:48:42.395Z,10.03
2024-01-11T01:51:09.574Z,8.03
2024-01-11T01:53:43.066Z,8.30
2024-01-11T01:56:10.195Z,9.23
2024-01-11T01:58:43.924Z,9.87
2024-01-11T02:01:12.147Z,9.10
2024-01-11T02:03:53.991Z,9.80
2024-01-11T02:06:24.697Z,8.47
2024-01-11T02:09:00.851Z,8.17
2024-01-11T02:11:28.333Z,9.70
2024-01-11T02:14:01.963Z,8.23
2024-01-11T02:16:34.943Z,8.53
2024-01-11T02:19:01.770Z,8.43
2024-01-11T02:21:36.894Z,10.30
2024-01-11T02:24:08.043Z,10.80
2024-01-11T02:26:42.010Z,8.03
2024-01-11T02:29:08.827Z,9.00
2024-01-11T02:31:41.920Z,11.67
2024-01-11T02:34:08.725Z,8.93
2024-01-11T02:36:42.169Z,8.57
2024-01-11T02:39:09.299Z,11.43
2024-01-11T02:41:47.267Z,10.30
2024-01-11T02:44:20.901Z,9.97
2024-01-11T02:46:47.704Z,8.97
2024-01-11T02:49:21.230Z,8.97
2024-01-11T02:51:47.968Z,10.97
2024-01-11T02:54:20.895Z,7.73
2024-01-11T02:56:48.057Z,8.50
2024-01-11T02:59:20.935Z,6.27
2024-01-11T03:01:47.763Z,7.30
2024-01-11T03:04:27.950Z,9.37
2024-01-11T03:06:54.645Z,10.73
2024-01-11T03:09:34.932Z,8.70
2024-01-11T03:12:01.777Z,13.73
2024-01-11T03:14:35.009Z,8.33
2024-01-11T03:17:02.804Z,11.60
2024-01-11T03:19:29.588Z,9.33
2024-01-11T03:22:02.960Z,6.60
2024-01-11T03:24:35.916Z,8.53
2024-01-11T03:27:08.889Z,6.70
2024-01-11T03:29:35.687Z,9.07
2024-01-11T03:32:08.948Z,6.87
2024-01-11T03:34:35.826Z,9.83
2024-01-11T03:37:08.917Z,8.73
2024-01-11T03:39:36.273Z,10.97
2024-01-11T03:42:10.919Z,9.13
2024-01-11T03:44:38.634Z,8.33
2024-01-11T03:47:12.017Z,11.73
2024-01-11T03:49:38.803Z,9.33
2024-01-11T03:52:11.906Z,9.50
2024-01-11T03:54:38.570Z,9.03
2024-01-11T03:57:11.929Z,6.70
2024-01-11T03:59:45.016Z,9.00
2024-01-11T04:02:11.800Z,10.13
2024-01-11T04:04:52.088Z,10.63
2024-01-11T04:07:18.776Z,8.80
2024-01-11T04:09:51.926Z,9.17
2024-01-11T04:12:18.672Z,8.90
2024-01-11T04:14:54.372Z,9.37
2024-01-11T04:17:21.084Z,10.13
2024-01-11T04:19:53.921Z,9.77
2024-01-11T04:22:20.718Z,8.30
2024-01-11T04:24:53.905Z,11.93
2024-01-11T04:27:26.872Z,9.37
2024-01-11T04:29:59.989Z,9.63
2024-01-11T04:32:33.088Z,11.67
2024-01-11T04:35:05.932Z,11.57
2024-01-11T04:37:39.926Z,7.43
2024-01-11T04:40:08.571Z,8.50
2024-01-11T04:42:41.968Z,7.07
2024-01-11T04:45:08.952Z,14.77
2024-01-11T04:47:42.743Z,8.47
2024-01-11T04:50:09.866Z,8.87
2024-01-11T04:52:42.899Z,9.67
2024-01-11T04:55:09.779Z,9.83
2024-01-11T04:57:43.127Z,12.07
2024-01-11T05:00:10.200Z,8.60
2024-01-11T05:02:49.939Z,11.50
2024-01-11T05:05:23.131Z,9.93
2024-01-11T05:07:55.970Z,7.83
2024-01-11T05:10:22.686Z,10.57
2024-01-11T05:12:55.905Z,11.67
2024-01-11T05:15:29.983Z,10.27
2024-01-11T05:17:58.245Z,10.57
2024-01-11T05:20:31.902Z,9.40
2024-01-11T05:22:58.525Z,10.60
2024-01-11T05:25:31.909Z,11.53
2024-01-11T05:28:05.897Z,9.00
2024-01-11T05:30:39.056Z,8.87
2024-01-11T05:33:06.114Z,11.20
2024-01-11T05:35:39.944Z,10.43
2024-01-11T05:38:22.017Z,10.50
2024-01-11T05:41:01.941Z,11.23
2024-01-11T05:43:34.924Z,12.13
2024-01-11T05:46:01.762Z,9.97
2024-01-11T05:48:34.985Z,9.20
2024-01-11T05:51:07.965Z,11.07
2024-01-11T05:53:42.976Z,11.77
2024-01-11T05:56:11.165Z,9.13
2024-01-11T05:58:45.927Z,11.03
2024-01-11T06:01:12.915Z,12.07
2024-01-11T06:03:47.019Z,9.77
2024-01-11T06:06:20.296Z,11.67
2024-01-11T06:08:53.945Z,12.77
2024-01-11T06:11:20.887Z,10.27
2024-01-11T06:13:54.966Z,11.57
2024-01-11T06:16:21.650Z,13.07
2024-01-11T06:18:55.048Z,10.63
2024-01-11T06:21:21.811Z,13.17
2024-01-11T06:23:55.969Z,12.37
2024-01-11T06:26:24.002Z,10.50
2024-01-11T06:28:57.068Z,11.93
2024-01-11T06:31:29.917Z,10.47
2024-01-11T06:33:56.634Z,12.77
2024-01-11T06:36:29.986Z,12.00
2024-01-11T06:38:56.709Z,8.97
2024-01-11T06:41:29.994Z,10.97
2024-01-11T06:43:59.976Z,10.97
2024-01-11T06:46:35.048Z,9.93
2024-01-11T06:49:02.079Z,11.70
2024-01-11T06:51:35.943Z,12.10
2024-01-11T06:54:02.990Z,11.53
2024-01-11T06:56:36.038Z,11.20
2024-01-11T06:59:09.055Z,12.60
2024-01-11T07:01:41.989Z,11.33
2024-01-11T07:04:14.975Z,10.93
2024-01-11T07:06:48.144Z,12.47
2024-01-11T07:09:21.966Z,11.80
2024-01-11T07:11:48.911Z,11.90
2024-01-11T07:14:22.035Z,12.43
2024-01-11T07:16:48.843Z,11.87
2024-01-11T07:19:30.045Z,9.93
2024-01-11T07:21:56.836Z,12.63
2024-01-11T07:24:29.984Z,10.97
2024-01-11T07:26:56.771Z,8.77
2024-01-11T07:29:31.081Z,10.50
2024-01-11T07:31:57.859Z,12.63
2024-01-11T07:34:32.045Z,11.93
2024-01-11T07:37:05.988Z,13.23
2024-01-11T07:39:33.157Z,14.00
2024-01-11T07:42:05.984Z,11.80
2024-01-11T07:44:33.528Z,10.30
2024-01-11T07:47:07.058Z,10.00
2024-01-11T07:49:33.859Z,11.73
2024-01-11T07:52:07.018Z,13.67
2024-01-11T07:54:34.112Z,8.87
2024-01-11T07:57:07.982Z,11.10
2024-01-11T07:59:37.342Z,11.90
2024-01-11T08:02:18.024Z,12.03
2024-01-11T08:04:51.285Z,12.30
2024-01-11T08:07:28.153Z,10.30
2024-01-11T08:10:04.346Z,11.77
2024-01-11T08:12:41.221Z,11.20
2024-01-11T08:15:16.452Z,10.33
2024-01-11T08:17:49.403Z,11.37
2024-01-11T08:20:23.140Z,11.87
2024-01-11T08:22:55.961Z,10.50
2024-01-11T08:25:28.977Z,13.40
2024-01-11T08:27:55.823Z,15.67
2024-01-11T08:30:29.058Z,11.97
2024-01-11T08:32:57.063Z,14.20
2024-01-11T08:35:30.051Z,11.97
2024-01-11T08:37:56.762Z,13.97
2024-01-11T08:40:30.021Z,18.03
2024-01-11T08:42:56.835Z,15.23
2024-01-11T08:45:30.005Z,14.27
2024-01-11T08:47:58.101Z,15.73
2024-01-11T08:50:32.106Z,12.90
2024-01-11T08:53:05.052Z,12.70
2024-01-11T08:55:31.874Z,15.13
2024-01-11T08:58:05.069Z,18.53
2024-01-11T09:00:31.796Z,13.27
2024-01-11T09:03:05.146Z,14.77
2024-01-11T09:05:38.165Z,16.00
2024-01-11T09:08:15.058Z,13.13
2024-01-11T09:10:43.143Z,14.83
2024-01-11T09:13:17.035Z,16.40
2024-01-11T09:15:44.312Z,16.10
2024-01-11T09:18:17.275Z,15.37
2024-01-11T09:20:44.323Z,17.50
2024-01-11T09:23:18.036Z,15.57
2024-01-11T09:25:45.021Z,13.87
2024-01-11T09:28:18.084Z,15.27
2024-01-11T09:30:51.105Z,15.00
2024-01-11T09:33:18.066Z,16.83
2024-01-11T09:35:51.047Z,19.20
2024-01-11T09:38:17.729Z,18.20
2024-01-11T09:40:51.037Z,19.60
2024-01-11T09:43:18.012Z,16.77
2024-01-11T09:45:52.030Z,18.23
2024-01-11T09:48:21.804Z,19.70
2024-01-11T09:50:55.994Z,20.87
2024-01-11T09:53:24.624Z,19.37
2024-01-11T09:56:59.366Z,20.70
2024-01-11T09:59:34.903Z,17.67
2024-01-11T10:02:27.426Z,17.97
2024-01-11T10:05:11.695Z,20.67
2024-01-11T10:07:53.940Z,17.50
2024-01-11T10:10:21.486Z,18.50
2024-01-11T10:13:14.103Z,20.80
2024-01-11T10:16:19.648Z,21.90
2024-01-11T10:18:53.173Z,21.67
2024-01-11T10:21:20.352Z,22.30
2024-01-11T10:23:54.043Z,22.23
2024-01-11T10:26:22.931Z,19.53
2024-01-11T10:28:56.268Z,22.50
2024-01-11T10:31:28.826Z,20.37
2024-01-11T10:34:02.098Z,25.40
2024-01-11T10:36:32.246Z,22.70
2024-01-11T10:39:09.054Z,19.33
2024-01-11T10:41:42.873Z,22.03
2024-01-11T10:44:32.101Z,19.87
2024-01-11T10:47:00.494Z,21.20
2024-01-11T10:49:34.073Z,21.63
2024-01-11T10:52:10.030Z,20.63
2024-01-11T10:54:39.586Z,24.33
2024-01-11T10:57:13.034Z,20.63
2024-01-11T10:59:44.177Z,22.70
2024-01-11T11:02:20.124Z,22.63
2024-01-11T11:04:55.573Z,24.40
2024-01-11T11:07:29.053Z,24.03
2024-01-11T11:10:07.682Z,24.67
2024-01-11T11:12:47.731Z,22.07
2024-01-11T11:15:53.291Z,24.87
2024-01-11T11:18:35.684Z,23.17
2024-01-11T11:21:19.431Z,22.87
2024-01-11T11:24:21.658Z,24.97
2024-01-11T11:27:05.344Z,22.30
2024-01-11T11:29:58.192Z,19.63
2024-01-11T11:33:30.334Z,19.70
2024-01-11T11:40:09.551Z,22.27
2024-01-11T11:47:10.258Z,20.60
2024-01-11T11:50:06.295Z,23.83
2024-01-11T11:52:43.125Z,23.87
2024-01-11T11:55:17.097Z,20.97
2024-01-11T11:57:44.349Z,26.63
2024-01-11T12:00:20.096Z,22.63
2024-01-11T12:02:56.796Z,26.60
2024-01-11T12:05:30.587Z,22.23
2024-01-11T12:08:04.105Z,23.07
2024-01-11T12:10:31.053Z,24.97
2024-01-11T12:13:04.104Z,23.03
2024-01-11T12:15:30.879Z,25.43
2024-01-11T12:18:07.160Z,22.53
2024-01-11T12:20:34.635Z,24.40
2024-01-11T12:23:10.082Z,24.37
2024-01-11T12:25:37.568Z,27.17
2024-01-11T12:28:04.610Z,24.40
2024-01-11T12:30:39.395Z,23.30
2024-01-11T12:33:07.183Z,23.10
2024-01-11T12:35:41.118Z,19.97
2024-01-11T12:38:14.108Z,24.30
2024-01-11T12:40:48.094Z,24.43
2024-01-11T12:43:15.162Z,18.40
2024-01-11T12:45:49.097Z,21.50
2024-01-11T12:48:24.344Z,19.07
2024-01-11T12:50:53.675Z,18.67
2024-01-11T12:53:32.133Z,20.57
2024-01-11T12:56:18.285Z,20.10
2024-01-11T12:58:47.757Z,22.43
2024-01-11T13:01:22.145Z,18.67
2024-01-11T13:04:02.092Z,16.00
2024-01-11T13:06:43.245Z,19.17
2024-01-11T13:09:16.103Z,20.03
2024-01-11T13:11:49.207Z,19.80
2024-01-11T13:14:20.704Z,19.93
2024-01-11T13:16:56.070Z,19.73
2024-01-11T13:19:27.245Z,17.13
2024-01-11T13:22:01.125Z,18.47
2024-01-11T13:24:27.824Z,19.87
2024-01-11T13:27:01.173Z,16.23
2024-01-11T13:29:34.167Z,18.93
2024-01-11T13:32:08.237Z,20.40
2024-01-11T13:34:41.124Z,18.70
2024-01-11T13:37:07.843Z,19.97
2024-01-11T13:39:41.078Z,18.47
2024-01-11T13:42:10.799Z,20.13
2024-01-11T13:44:44.207Z,18.13
2024-01-11T13:47:11.133Z,17.30
2024-01-11T13:49:44.325Z,16.90
2024-01-11T13:52:17.128Z,16.83
2024-01-11T13:54:45.260Z,17.63
2024-01-11T13:57:19.159Z,17.60
2024-01-11T13:59:46.228Z,14.77
2024-01-11T14:02:20.218Z,15.30
2024-01-11T14:05:00.129Z,14.93
2024-01-11T14:07:33.569Z,14.70
2024-01-11T14:10:07.109Z,16.03
2024-01-11T14:12:40.112Z,15.13
2024-01-11T14:15:19.084Z,15.07
2024-01-11T14:17:46.034Z,17.07
2024-01-11T14:20:21.179Z,17.77
2024-01-11T14:22:57.154Z,17.77
2024-01-11T14:25:35.140Z,19.80
2024-01-11T14:28:01.911Z,18.20
2024-01-11T14:30:35.223Z,15.80
2024-01-11T14:33:02.038Z,17.13
2024-01-11T14:35:29.094Z,15.60
2024-01-11T14:38:02.143Z,17.93
2024-01-11T14:40:28.816Z,14.90
2024-01-11T14:43:02.166Z,18.30
2024-01-11T14:45:29.182Z,15.87
2024-01-11T14:48:02.335Z,16.07
2024-01-11T14:50:29.843Z,14.77
2024-01-11T14:53:03.185Z,15.93
2024-01-11T14:55:30.006Z,18.17
2024-01-11T14:58:03.182Z,14.60
2024-01-11T15:00:36.178Z,16.83
2024-01-11T15:03:03.708Z,17.40
2024-01-11T15:05:37.181Z,16.23
2024-01-11T15:08:04.212Z,17.03
2024-01-11T15:10:38.187Z,14.77
2024-01-11T15:13:04.984Z,15.70
2024-01-11T15:15:40.001Z,16.60
2024-01-11T15:18:14.325Z,14.47
2024-01-11T15:20:47.132Z,17.37
2024-01-11T15:23:20.182Z,15.17
2024-01-11T15:25:47.142Z,16.80
2024-01-11T15:28:20.176Z,16.90
2024-01-11T15:30:47.035Z,15.83
2024-01-11T15:33:21.257Z,16.80
2024-01-11T15:35:49.707Z,14.97
2024-01-11T15:38:24.144Z,15.90
2024-01-11T15:40:50.815Z,15.77
2024-01-11T15:43:17.507Z,17.80
2024-01-11T15:45:51.186Z,17.07
2024-01-11T15:48:24.336Z,16.57
2024-01-11T15:50:58.196Z,16.40
2024-01-11T15:53:24.912Z,12.23
2024-01-11T15:55:59.163Z,16.67
2024-01-11T15:58:25.913Z,15.00
2024-01-11T16:00:59.155Z,17.53
2024-01-11T16:03:25.996Z,15.90
2024-01-11T16:06:06.306Z,16.37
2024-01-11T16:08:33.461Z,14.23
2024-01-11T16:11:07.225Z,15.77
2024-01-11T16:13:33.884Z,18.07
2024-01-11T16:16:07.137Z,16.03
2024-01-11T16:18:36.118Z,16.57
2024-01-11T16:21:09.143Z,16.90
2024-01-11T16:23:36.080Z,16.20
2024-01-11T16:26:09.275Z,16.13
2024-01-11T16:28:43.184Z,13.50
2024-01-11T16:31:16.203Z,17.37
2024-01-11T16:33:49.209Z,18.10
2024-01-11T16:36:25.306Z,18.07
2024-01-11T16:38:58.260Z,15.97
2024-01-11T16:41:32.277Z,15.77
2024-01-11T16:44:05.220Z,15.63
2024-01-11T16:46:32.054Z,16.93
2024-01-11T16:49:07.249Z,17.17
2024-01-11T16:51:34.154Z,15.80
2024-01-11T16:54:07.256Z,14.23
2024-01-11T16:56:33.969Z,13.20
2024-01-11T16:59:07.221Z,14.53
2024-01-11T17:01:40.209Z,17.80
2024-01-11T17:04:13.362Z,15.97
2024-01-11T17:06:53.212Z,14.27
2024-01-11T17:09:19.887Z,17.43
2024-01-11T17:11:53.243Z,17.13
2024-01-11T17:14:20.100Z,13.37
2024-01-11T17:16:53.196Z,12.90
2024-01-11T17:19:20.202Z,15.40
2024-01-11T17:21:54.208Z,14.73
2024-01-11T17:24:21.123Z,15.27
2024-01-11T17:26:54.289Z,16.20
2024-01-11T17:29:27.283Z,12.03
2024-01-11T17:31:54.085Z,12.00
2024-01-11T17:34:27.302Z,17.83
2024-01-11T17:36:54.281Z,15.87
2024-01-11T17:39:28.284Z,17.57
2024-01-11T17:41:55.056Z,14.90
2024-01-11T17:44:30.308Z,15.57
2024-01-11T17:47:03.148Z,16.90
2024-01-11T17:49:36.267Z,14.37
2024-01-11T17:52:03.143Z,15.53
2024-01-11T17:54:36.214Z,16.10
2024-01-11T17:57:03.111Z,18.17
2024-01-11T17:59:36.298Z,18.00
2024-01-11T18:02:03.836Z,16.77
2024-01-11T18:04:44.334Z,16.73
2024-01-11T18:07:18.021Z,17.90
2024-01-11T18:09:51.251Z,17.33
2024-01-11T18:12:24.208Z,14.63
2024-01-11T18:14:51.233Z,19.53
2024-01-11T18:17:24.211Z,21.83
2024-01-11T18:19:51.185Z,17.00
2024-01-11T18:22:24.253Z,21.17
2024-01-11T18:24:50.937Z,20.27
2024-01-11T18:27:24.203Z,20.43
2024-01-11T18:29:51.006Z,16.23
2024-01-11T18:32:24.315Z,20.07
2024-01-11T18:34:57.369Z,21.73
2024-01-11T18:37:25.442Z,23.00
2024-01-11T18:39:58.271Z,27.97
2024-01-11T18:42:25.498Z,19.37
2024-01-11T18:44:59.407Z,21.90
2024-01-11T18:47:26.365Z,18.13
2024-01-11T18:49:59.219Z,20.97
2024-01-11T18:52:26.338Z,21.50
2024-01-11T18:55:08.322Z,18.10
2024-01-11T18:57:42.958Z,18.83
2024-01-11T19:00:18.197Z,18.43
2024-01-11T19:02:46.864Z,18.73
2024-01-11T19:05:20.554Z,20.83
2024-01-11T19:07:47.999Z,19.67
2024-01-11T19:10:21.292Z,22.27
2024-01-11T19:12:54.269Z,21.50
2024-01-11T19:15:21.387Z,20.57
2024-01-11T19:17:55.364Z,20.90
2024-01-11T19:20:29.997Z,20.37
2024-01-11T19:23:03.239Z,23.37
2024-01-11T19:25:33.173Z,19.43
2024-01-11T19:28:08.257Z,20.20
2024-01-11T19:30:35.275Z,17.80
2024-01-11T19:33:11.362Z,22.77
2024-01-11T19:35:38.196Z,22.57
2024-01-11T19:38:11.248Z,19.57
2024-01-11T19:40:37.989Z,22.23
2024-01-11T19:43:11.253Z,21.93
2024-01-11T19:45:38.098Z,23.03
2024-01-11T19:48:12.463Z,23.73
2024-01-11T19:50:39.584Z,24.67
2024-01-11T19:53:14.444Z,21.40
2024-01-11T19:55:41.912Z,23.80
2024-01-11T19:58:08.765Z,22.83
2024-01-11T20:00:46.324Z,25.47
2024-01-11T20:03:13.161Z,25.37
2024-01-11T20:05:46.358Z,21.90
2024-01-11T20:08:19.698Z,18.23
2024-01-11T20:10:54.278Z,23.40
2024-01-11T20:13:21.034Z,23.00
2024-01-11T20:16:01.394Z,25.33
2024-01-11T20:18:29.726Z,23.10
2024-01-11T20:21:04.386Z,21.73
2024-01-11T20:23:37.307Z,29.27
2024-01-11T20:26:10.336Z,21.57
2024-01-11T20:28:36.995Z,26.83
2024-01-11T20:31:10.407Z,25.10
2024-01-11T20:33:44.581Z,24.77
2024-01-11T20:36:11.368Z,23.10
2024-01-11T20:38:44.451Z,20.50
2024-01-11T20:41:13.739Z,24.13
2024-01-11T20:43:49.296Z,21.87
2024-01-11T20:46:22.875Z,24.17
2024-01-11T20:48:56.419Z,25.57
2024-01-11T20:51:23.141Z,24.67
2024-01-11T20:53:58.277Z,24.90
2024-01-11T20:56:25.879Z,24.40
2024-01-11T20:58:59.261Z,22.83
2024-01-11T21:01:26.004Z,23.53
2024-01-11T21:03:59.438Z,27.20
2024-01-11T21:06:33.514Z,25.13
2024-01-11T21:09:00.719Z,28.20
2024-01-11T21:11:34.309Z,27.63
2024-01-11T21:14:00.987Z,29.10
2024-01-11T21:16:34.308Z,25.40
2024-01-11T21:19:01.298Z,26.47
2024-01-11T21:21:34.328Z,24.00
2024-01-11T21:24:02.701Z,23.43
2024-01-11T21:26:36.301Z,26.77
2024-01-11T21:29:02.999Z,25.83
2024-01-11T21:31:39.344Z,23.53
2024-01-11T21:34:06.145Z,24.70
2024-01-11T21:36:41.273Z,26.43
2024-01-11T21:39:15.307Z,24.60
2024-01-11T21:41:42.081Z,31.87
2024-01-11T21:44:15.318Z,28.07
2024-01-11T21:46:42.469Z,23.87
2024-01-11T21:49:16.366Z,21.00
2024-01-11T21:51:43.715Z,26.53
2024-01-11T21:54:10.448Z,27.60
2024-01-11T21:56:43.364Z,24.50
2024-01-11T21:59:10.149Z,23.00
2024-01-11T22:01:49.340Z,26.97
2024-01-11T22:04:16.172Z,24.47
2024-01-11T22:06:56.540Z,29.50
2024-01-11T22:09:23.361Z,27.53
2024-01-11T22:11:56.408Z,28.20
2024-01-11T22:14:23.343Z,29.57
2024-01-11T22:16:57.331Z,28.37
2024-01-11T22:19:24.236Z,32.23
2024-01-11T22:21:57.341Z,27.63
2024-01-11T22:24:23.982Z,26.27
2024-01-11T22:26:57.325Z,30.10
2024-01-11T22:29:24.047Z,34.07
2024-01-11T22:31:57.408Z,32.70
2024-01-11T22:34:24.554Z,30.37
2024-01-11T22:36:58.359Z,28.67
2024-01-11T22:39:31.432Z,31.23
2024-01-11T22:42:05.127Z,29.20
2024-01-11T22:44:38.398Z,28.87
2024-01-11T22:47:06.866Z,27.27
2024-01-11T22:49:40.394Z,31.43
2024-01-11T22:52:07.733Z,28.93
2024-01-11T22:54:42.341Z,28.40
2024-01-11T22:57:09.201Z,32.60
2024-01-11T22:59:42.411Z,33.50
2024-01-11T23:02:16.417Z,32.57
2024-01-11T23:04:51.261Z,33.50
2024-01-11T23:07:31.430Z,26.63
2024-01-11T23:10:04.325Z,28.40
2024-01-11T23:12:31.000Z,32.70
2024-01-11T23:15:04.517Z,34.57
2024-01-11T23:17:38.559Z,32.73
2024-01-11T23:20:08.470Z,34.73
2024-01-11T23:22:43.316Z,26.87
2024-01-11T23:25:10.268Z,29.60
2024-01-11T23:27:43.418Z,33.13
2024-01-11T23:30:10.655Z,30.57
2024-01-11T23:32:46.421Z,30.17
2024-01-11T23:35:13.452Z,29.27
2024-01-11T23:37:46.381Z,25.67
2024-01-11T23:40:19.365Z,32.00
2024-01-11T23:42:52.402Z,32.60
2024-01-11T23:45:22.579Z,36.47
2024-01-11T23:47:55.426Z,34.63
2024-01-11T23:50:25.531Z,28.73
2024-01-11T23:52:59.416Z,32.87
2024-01-11T23:55:33.465Z,32.03
2024-01-11T23:58:06.464Z,28.30
